Time;durP1;ratioP1;P1;durP2;ratioP2;P2;SDS_P1;SDS_P2;PMS_P1;PMS_P2;Temp;Humidity;BMP_temperature;BMP_pressure;BME280_temperature;BME280_humidity;BME280_pressure;Samples;Min_cycle;Max_cycle;Signal;HPM_P1;HPM_P2
2022/05/12 00:01:13;;;;;;;4.32;1.77;;;23.00;38.30;;;;;;7713866;23;20016;-68
2022/05/12 00:04:14;;;;;;;5.13;1.63;;;22.90;38.50;;;;;;7688264;23;20376;-69
2022/05/12 00:07:16;;;;;;;4.45;1.77;;;22.90;38.90;;;;;;7658444;23;20028;-68
2022/05/12 00:10:21;;;;;;;4.78;1.58;;;22.90;38.70;;;;;;7652019;23;20009;-69
2022/05/12 00:13:22;;;;;;;8.48;1.60;;;22.80;38.60;;;;;;7653282;23;20088;-69
2022/05/12 00:16:24;;;;;;;4.30;2.35;;;22.80;38.80;;;;;;7688404;23;20013;-69
2022/05/12 00:19:26;;;;;;;4.53;1.63;;;22.70;38.90;;;;;;7663893;23;20016;-68
2022/05/12 00:22:27;;;;;;;4.53;1.80;;;22.70;38.80;;;;;;7712811;23;20012;-69
2022/05/12 00:25:28;;;;;;;6.82;2.03;;;22.60;38.90;;;;;;7687861;23;20008;-69
2022/05/12 00:28:31;;;;;;;6.75;1.73;;;22.60;39.00;;;;;;7657469;23;20051;-70
2022/05/12 00:31:35;;;;;;;6.25;2.13;;;22.50;39.20;;;;;;7714991;23;20008;-68
2022/05/12 00:34:37;;;;;;;4.75;2.00;;;22.50;39.30;;;;;;7663278;23;20099;-69
2022/05/12 00:37:38;;;;;;;6.07;1.73;;;22.50;39.50;;;;;;7687788;23;20024;-69
2022/05/12 00:40:42;;;;;;;6.22;2.00;;;22.40;39.70;;;;;;7625893;23;20013;-68
2022/05/12 00:43:49;;;;;;;8.52;1.95;;;22.30;39.80;;;;;;7651318;23;20052;-69
2022/05/12 00:46:52;;;;;;;4.32;2.10;;;22.20;40.00;;;;;;7687566;23;20022;-70
2022/05/12 00:49:54;;;;;;;5.13;1.83;;;22.10;40.00;;;;;;7688244;23;20023;-69
2022/05/12 00:52:58;;;;;;;6.93;2.28;;;22.10;40.10;;;;;;7687590;23;20427;-69
2022/05/12 00:56:00;;;;;;;5.18;1.80;;;22.10;40.20;;;;;;7714210;23;20020;-69
2022/05/12 00:59:06;;;;;;;7.85;1.98;;;22.10;40.20;;;;;;7713946;23;20017;-69
2022/05/12 01:02:14;;;;;;;6.20;1.80;;;22.00;40.30;;;;;;7687922;23;20378;-69
2022/05/12 01:05:17;;;;;;;3.72;2.30;;;22.00;40.30;;;;;;7662082;23;20020;-69
2022/05/12 01:08:21;;;;;;;7.28;2.58;;;21.90;40.40;;;;;;7650304;23;20084;-69
2022/05/12 01:11:24;;;;;;;5.43;1.70;;;21.90;40.60;;;;;;7649108;23;20013;-69
2022/05/12 01:14:25;;;;;;;6.20;2.38;;;21.80;40.60;;;;;;7676411;23;20020;-68
2022/05/12 01:17:26;;;;;;;5.53;1.52;;;21.80;40.80;;;;;;7676826;23;20096;-70
2022/05/12 01:20:27;;;;;;;4.55;1.83;;;21.80;40.80;;;;;;7650218;23;20013;-68
2022/05/12 01:23:36;;;;;;;5.85;1.77;;;21.60;40.80;;;;;;7676489;23;20046;-69
2022/05/12 01:26:37;;;;;;;;;;;21.70;40.90;;;;;;7676914;23;20017;-69
2022/05/12 01:29:38;;;;;;;7.95;1.95;;;21.70;41.00;;;;;;7650339;23;19927;-70
2022/05/12 01:32:40;;;;;;;3.80;2.00;;;21.60;41.00;;;;;;7649785;23;20026;-68
2022/05/12 01:35:41;;;;;;;5.00;2.03;;;21.60;41.20;;;;;;7650193;23;20464;-68
2022/05/12 01:38:42;;;;;;;4.65;1.75;;;21.50;41.30;;;;;;7676587;23;20075;-68
2022/05/12 01:41:43;;;;;;;7.90;1.90;;;21.40;41.40;;;;;;7650188;23;20017;-69
2022/05/12 01:44:44;;;;;;;5.07;2.00;;;21.40;41.60;;;;;;7650785;23;20439;-69
2022/05/12 01:47:45;;;;;;;5.00;1.83;;;21.30;41.70;;;;;;7650739;23;20047;-69
2022/05/12 01:50:47;;;;;;;9.20;1.98;;;21.30;41.80;;;;;;7675915;23;20385;-68
2022/05/12 01:53:48;;;;;;;9.07;2.00;;;21.30;41.80;;;;;;7650378;23;20116;-68
2022/05/12 01:56:50;;;;;;;5.18;1.50;;;21.30;41.90;;;;;;7675600;23;20148;-68
2022/05/12 01:59:51;;;;;;;5.28;1.85;;;21.20;42.00;;;;;;7650552;23;20013;-70
2022/05/12 02:02:54;;;;;;;10.32;1.95;;;21.20;42.20;;;;;;7649870;23;20427;-68
2022/05/12 02:05:55;;;;;;;7.75;1.90;;;21.10;42.40;;;;;;7648644;23;20017;-68
2022/05/12 02:08:57;;;;;;;13.68;2.20;;;21.10;42.50;;;;;;7649130;23;20008;-68
2022/05/12 02:11:58;;;;;;;9.20;2.03;;;21.10;42.70;;;;;;7674982;23;20048;-69
2022/05/12 02:15:00;;;;;;;9.27;1.90;;;21.10;42.70;;;;;;7649907;23;20428;-68
2022/05/12 02:18:01;;;;;;;4.03;1.70;;;21.00;42.70;;;;;;7676318;23;20071;-68
2022/05/12 02:21:02;;;;;;;9.55;2.00;;;21.00;42.80;;;;;;7649711;23;20321;-68
2022/05/12 02:24:04;;;;;;;4.00;1.73;;;21.00;43.00;;;;;;7675314;23;20028;-68
2022/05/12 02:27:06;;;;;;;6.13;1.80;;;20.90;43.00;;;;;;7675769;23;20360;-68
2022/05/12 02:30:08;;;;;;;4.03;1.80;;;20.90;43.00;;;;;;7624987;23;20075;-68
2022/05/12 02:33:10;;;;;;;5.25;1.55;;;20.90;43.00;;;;;;7649363;23;20424;-68
2022/05/12 02:36:12;;;;;;;8.75;1.83;;;20.90;43.00;;;;;;7649374;23;20356;-68
2022/05/12 02:39:13;;;;;;;5.70;1.90;;;20.90;43.00;;;;;;7649858;23;20091;-68
2022/05/12 02:42:14;;;;;;;7.30;2.05;;;20.90;42.90;;;;;;7649489;23;20021;-69
2022/05/12 02:45:15;;;;;;;8.77;1.83;;;21.00;42.90;;;;;;7650347;23;20335;-69
2022/05/12 02:48:18;;;;;;;9.88;1.80;;;21.00;42.90;;;;;;7674611;23;20024;-68
2022/05/12 02:51:19;;;;;;;4.57;2.00;;;20.90;42.90;;;;;;7613410;23;20018;-69
2022/05/12 02:54:20;;;;;;;5.90;1.60;;;20.90;43.00;;;;;;7649223;23;20035;-69
2022/05/12 02:57:22;;;;;;;4.10;2.60;;;20.80;43.00;;;;;;7673629;23;20020;-69
2022/05/12 03:00:23;;;;;;;7.10;1.98;;;20.80;43.10;;;;;;7625201;23;20036;-69
2022/05/12 03:03:24;;;;;;;8.27;1.95;;;20.80;43.10;;;;;;7675609;23;20181;-69
2022/05/12 03:06:26;;;;;;;13.13;1.88;;;20.80;43.10;;;;;;7649653;23;20044;-71
2022/05/12 03:09:28;;;;;;;5.22;1.60;;;20.80;43.10;;;;;;7675710;23;20017;-69
2022/05/12 03:12:30;;;;;;;8.38;1.85;;;20.70;43.10;;;;;;7675561;23;20021;-69
2022/05/12 03:15:31;;;;;;;8.57;2.20;;;20.70;43.10;;;;;;7624425;23;20032;-69
2022/05/12 03:18:33;;;;;;;7.63;1.70;;;20.80;43.20;;;;;;7612497;23;20065;-68
2022/05/12 03:21:34;;;;;;;7.57;1.58;;;20.80;43.30;;;;;;7649480;23;20344;-70
2022/05/12 03:24:35;;;;;;;6.15;2.03;;;20.70;43.30;;;;;;7675942;23;20025;-69
2022/05/12 03:27:37;;;;;;;4.18;1.85;;;20.70;43.40;;;;;;7649785;23;20023;-69
2022/05/12 03:30:38;;;;;;;6.05;1.70;;;20.70;43.50;;;;;;7622779;23;20052;-69
2022/05/12 03:33:39;;;;;;;4.20;1.90;;;20.70;43.70;;;;;;7624029;23;20431;-68
2022/05/12 03:36:40;;;;;;;8.82;2.33;;;20.60;43.90;;;;;;7675197;23;20416;-69
2022/05/12 03:39:42;;;;;;;5.03;2.05;;;20.60;44.00;;;;;;7674138;23;20024;-69
2022/05/12 03:42:44;;;;;;;5.95;2.20;;;20.50;44.20;;;;;;7650196;23;20012;-69
2022/05/12 03:45:45;;;;;;;6.85;2.08;;;20.40;44.30;;;;;;7623792;23;20053;-69
2022/05/12 03:48:46;;;;;;;3.35;1.90;;;20.30;44.50;;;;;;7649720;23;20017;-69
2022/05/12 03:51:47;;;;;;;6.00;1.98;;;20.30;44.70;;;;;;7674833;23;20041;-69
2022/05/12 03:54:48;;;;;;;9.63;2.00;;;20.20;44.70;;;;;;7649883;23;20108;-68
2022/05/12 03:57:51;;;;;;;4.45;2.05;;;20.20;44.90;;;;;;7675246;23;20305;-67
2022/05/12 04:00:53;;;;;;;11.05;1.88;;;20.20;45.10;;;;;;7649369;23;20013;-67
2022/05/12 04:03:54;;;;;;;8.82;1.92;;;20.10;45.10;;;;;;7648655;23;20021;-67
2022/05/12 04:06:55;;;;;;;10.10;1.90;;;20.10;45.10;;;;;;7650926;23;20028;-69
2022/05/12 04:09:56;;;;;;;5.07;2.13;;;20.10;45.10;;;;;;7651769;23;20071;-69
2022/05/12 04:12:56;;;;;;;4.13;1.73;;;20.10;45.10;;;;;;7660835;23;20021;-69
2022/05/12 04:15:58;;;;;;;3.65;1.73;;;20.10;45.10;;;;;;7675844;23;20056;-69
2022/05/12 04:18:59;;;;;;;2.63;1.98;;;20.10;45.20;;;;;;7676245;23;20013;-69
2022/05/12 04:22:00;;;;;;;4.60;1.95;;;20.10;45.30;;;;;;7650226;23;20013;-69
2022/05/12 04:25:04;;;;;;;7.68;2.28;;;20.10;45.30;;;;;;7676403;23;20021;-68
2022/05/12 04:28:05;;;;;;;9.38;1.90;;;20.10;45.30;;;;;;7676040;23;20024;-67
2022/05/12 04:31:06;;;;;;;7.47;1.95;;;20.10;45.30;;;;;;7677825;23;20044;-68
2022/05/12 04:37:32;;;;;;;5.35;2.17;;;20.00;45.50;;;;;;7673641;23;20023;-68
2022/05/12 04:40:33;;;;;;;6.78;2.15;;;20.00;45.60;;;;;;7674155;23;20020;-69
2022/05/12 04:43:35;;;;;;;6.32;1.83;;;20.00;45.80;;;;;;7673792;23;20455;-69
2022/05/12 04:46:38;;;;;;;3.60;1.90;;;19.90;46.00;;;;;;7675192;23;20017;-67
2022/05/12 04:49:39;;;;;;;10.48;2.13;;;19.90;46.10;;;;;;7673922;23;20436;-68
2022/05/12 04:52:40;;;;;;;11.35;2.28;;;19.80;46.20;;;;;;7675013;23;20048;-67
2022/05/12 04:55:41;;;;;;;6.03;2.10;;;19.80;46.40;;;;;;7676028;23;20009;-69
2022/05/12 04:58:42;;;;;;;14.75;2.65;;;19.80;46.50;;;;;;7674683;23;20044;-69
2022/05/12 05:01:43;;;;;;;7.72;2.95;;;19.80;46.60;;;;;;7674373;23;20436;-68
2022/05/12 05:04:44;;;;;;;11.65;2.50;;;19.80;46.60;;;;;;7673679;23;20032;-68
2022/05/12 05:07:45;;;;;;;13.32;2.45;;;19.80;46.60;;;;;;7674837;23;20136;-69
2022/05/12 05:10:47;;;;;;;6.97;2.35;;;19.80;46.70;;;;;;7674789;23;20020;-70
2022/05/12 05:13:48;;;;;;;11.98;2.70;;;19.80;46.70;;;;;;7649846;23;20021;-68
2022/05/12 05:16:49;;;;;;;5.63;2.15;;;19.80;46.60;;;;;;7676656;23;20024;-69
2022/05/12 05:19:51;;;;;;;11.45;2.22;;;19.90;46.70;;;;;;7650876;23;20043;-68
2022/05/12 05:22:53;;;;;;;6.55;2.25;;;19.90;46.70;;;;;;7676500;23;20017;-69
2022/05/12 05:25:54;;;;;;;12.82;2.17;;;20.00;46.70;;;;;;7675784;23;20017;-67
2022/05/12 05:28:54;;;;;;;10.95;2.75;;;20.00;46.60;;;;;;7675029;23;20044;-69
2022/05/12 05:31:55;;;;;;;13.25;2.50;;;20.10;46.60;;;;;;7674061;23;20013;-68
2022/05/12 05:34:56;;;;;;;10.02;2.75;;;20.10;46.70;;;;;;7672279;23;20108;-68
2022/05/12 05:37:57;;;;;;;8.45;2.60;;;20.10;46.70;;;;;;7675395;23;20036;-68
2022/05/12 05:40:58;;;;;;;9.63;2.25;;;20.10;46.70;;;;;;7674795;23;20037;-68
2022/05/12 05:44:00;;;;;;;3.47;2.10;;;20.10;46.80;;;;;;7675692;23;20024;-68
2022/05/12 05:47:02;;;;;;;9.85;2.80;;;20.10;46.90;;;;;;7675886;23;20020;-69
2022/05/12 05:50:03;;;;;;;5.82;2.50;;;20.10;46.90;;;;;;7649820;23;20024;-68
2022/05/12 05:56:23;;;;;;;8.27;2.30;;;20.20;47.10;;;;;;7676155;23;20325;-69
2022/05/12 05:59:24;;;;;;;14.38;2.88;;;20.20;47.00;;;;;;7674117;23;20020;-69
2022/05/12 06:02:25;;;;;;;11.43;2.33;;;20.20;47.00;;;;;;7672893;23;20025;-68
2022/05/12 06:05:28;;;;;;;20.90;2.55;;;20.20;47.10;;;;;;7647999;23;20087;-69
2022/05/12 06:08:29;;;;;;;6.65;2.33;;;20.20;47.10;;;;;;7649108;23;20032;-68
2022/05/12 06:11:29;;;;;;;10.82;2.45;;;20.30;47.20;;;;;;7685226;23;20140;-69
2022/05/12 06:14:33;;;;;;;19.35;2.55;;;20.20;47.20;;;;;;7712045;23;20024;-69
2022/05/12 06:17:36;;;;;;;5.68;2.80;;;20.30;47.20;;;;;;7660042;23;20420;-69
2022/05/12 06:20:37;;;;;;;3.75;1.95;;;20.30;47.10;;;;;;7686692;23;20427;-69
2022/05/12 06:23:39;;;;;;;9.23;2.10;;;20.40;47.10;;;;;;7685628;23;20139;-69
2022/05/12 06:26:40;;;;;;;5.78;1.85;;;20.40;46.90;;;;;;7686941;23;20142;-68
2022/05/12 06:29:47;;;;;;;8.13;2.38;;;20.50;46.80;;;;;;7711987;23;20020;-68
2022/05/12 06:32:49;;;;;;;18.33;2.90;;;20.50;46.70;;;;;;7623402;23;20305;-69
2022/05/12 06:35:52;;;;;;;3.97;2.40;;;20.50;47.70;;;;;;7673493;23;20064;-69
2022/05/12 06:38:53;;;;;;;9.63;2.78;;;20.20;49.40;;;;;;7659401;23;20020;-68
2022/05/12 06:41:54;;;;;;;9.50;2.65;;;19.90;50.90;;;;;;7647447;23;20316;-68
2022/05/12 06:45:01;;;;;;;5.05;2.63;;;19.60;51.90;;;;;;7648050;23;20096;-69
2022/05/12 06:48:02;;;;;;;8.82;2.70;;;19.40;52.50;;;;;;7674040;23;20012;-69
2022/05/12 06:51:03;;;;;;;14.95;3.10;;;19.30;53.00;;;;;;7662587;23;20025;-69
2022/05/12 06:54:05;;;;;;;9.63;3.08;;;19.30;53.30;;;;;;7674340;23;20009;-68
2022/05/12 06:57:06;;;;;;;9.40;3.10;;;19.40;53.50;;;;;;7671989;23;20013;-69
2022/05/12 07:00:08;;;;;;;5.45;2.65;;;19.60;53.60;;;;;;7673404;23;20012;-70
2022/05/12 07:03:12;;;;;;;7.38;2.78;;;19.80;53.70;;;;;;7622506;23;20071;-68
2022/05/12 07:06:13;;;;;;;6.82;2.60;;;20.00;53.20;;;;;;7648065;23;20024;-68
2022/05/12 07:09:18;;;;;;;8.23;1.95;;;20.20;52.80;;;;;;7684816;23;20021;-69
2022/05/12 07:12:20;;;;;;;22.95;3.30;;;20.40;52.50;;;;;;7652796;23;20356;-70
2022/05/12 07:15:25;;;;;;;7.55;3.00;;;20.50;52.10;;;;;;7673361;23;20146;-69
2022/05/12 07:18:26;;;;;;;4.70;2.55;;;20.70;51.90;;;;;;7672837;23;20017;-69
2022/05/12 07:28:05;;;;;;;9.85;2.80;;;21.30;51.30;;;;;;7672323;23;20013;-68
2022/05/12 07:31:09;;;;;;;14.00;3.33;;;21.50;51.10;;;;;;7671156;23;20009;-69
2022/05/12 07:34:13;;;;;;;7.40;2.38;;;21.60;50.90;;;;;;7671716;23;20021;-68
2022/05/12 07:37:15;;;;;;;7.15;3.15;;;21.70;50.60;;;;;;7670780;23;20102;-70
2022/05/12 07:40:16;;;;;;;13.43;2.92;;;21.80;50.60;;;;;;7666008;23;20024;-69
2022/05/12 07:43:17;;;;;;;9.75;2.40;;;21.90;50.40;;;;;;7670705;23;20088;-69
2022/05/12 07:46:21;;;;;;;11.93;4.00;;;22.00;50.20;;;;;;7671219;23;20027;-68
2022/05/12 07:49:22;;;;;;;12.23;3.80;;;22.20;49.90;;;;;;7631015;23;20181;-69
2022/05/12 07:52:26;;;;;;;17.83;3.10;;;22.40;49.50;;;;;;7636474;23;20024;-69
2022/05/12 07:55:27;;;;;;;7.55;2.60;;;22.60;48.90;;;;;;7669232;23;20286;-69
2022/05/12 07:58:29;;;;;;;14.95;2.85;;;22.80;48.60;;;;;;7673640;23;20021;-68
2022/05/12 08:01:30;;;;;;;16.40;2.63;;;22.90;48.00;;;;;;7670833;23;20020;-69
2022/05/12 08:04:32;;;;;;;12.63;2.83;;;23.00;47.90;;;;;;7671628;23;20017;-69
2022/05/12 08:07:33;;;;;;;13.55;3.08;;;23.20;47.50;;;;;;7611811;23;20033;-69
2022/05/12 08:10:34;;;;;;;12.68;2.63;;;23.40;47.20;;;;;;7635026;23;20479;-70
2022/05/12 08:13:35;;;;;;;8.20;2.70;;;23.50;47.00;;;;;;7667120;23;20017;-69
2022/05/12 08:16:37;;;;;;;16.48;2.78;;;23.70;46.80;;;;;;7711673;23;20009;-69
2022/05/12 08:19:38;;;;;;;15.48;2.40;;;23.80;46.60;;;;;;7683983;23;20455;-69
2022/05/12 08:22:39;;;;;;;13.93;2.88;;;23.80;46.50;;;;;;7709421;23;20051;-71
2022/05/12 08:25:40;;;;;;;5.57;2.67;;;23.90;46.10;;;;;;7667989;23;20412;-69
2022/05/12 08:28:42;;;;;;;11.70;2.53;;;24.10;46.00;;;;;;7673940;23;20480;-70
2022/05/12 08:31:43;;;;;;;12.30;3.03;;;24.20;45.50;;;;;;7646520;23;20490;-69
2022/05/12 08:34:44;;;;;;;6.82;2.63;;;24.30;45.00;;;;;;7672157;23;20016;-69
2022/05/12 08:37:46;;;;;;;17.67;2.53;;;24.50;44.70;;;;;;7696743;23;20031;-69
2022/05/12 08:41:02;;;;;;;7.82;2.42;;;24.50;44.20;;;;;;7658539;23;20108;-71
2022/05/12 08:44:09;;;;;;;5.57;2.40;;;24.60;43.80;;;;;;7700198;23;20474;-69
2022/05/12 08:47:14;;;;;;;12.05;2.10;;;24.70;43.60;;;;;;7711185;23;20763;-70
2022/05/12 08:50:23;;;;;;;7.45;2.13;;;24.80;43.60;;;;;;7685694;23;20075;-70
2022/05/12 08:53:29;;;;;;;13.27;2.40;;;24.90;43.30;;;;;;7685096;23;20090;-71
2022/05/12 08:56:32;;;;;;;8.35;2.40;;;25.00;43.00;;;;;;7711023;23;20353;-70
2022/05/12 08:59:37;;;;;;;7.15;2.50;;;25.10;42.60;;;;;;7712402;23;20009;-70
2022/05/12 09:02:38;;;;;;;7.05;2.28;;;25.10;42.50;;;;;;7685299;23;20468;-71
2022/05/12 09:06:09;;;;;;;6.32;2.35;;;25.10;42.70;;;;;;7685688;23;20018;-71
2022/05/12 09:09:34;;;;;;;15.32;2.20;;;25.10;42.50;;;;;;7685523;23;20091;-70
2022/05/12 09:13:00;;;;;;;6.18;2.67;;;25.30;42.50;;;;;;7644451;23;20028;-70
2022/05/12 09:16:15;;;;;;;5.90;2.58;;;25.40;41.80;;;;;;7680039;23;20016;-70
2022/05/12 09:19:16;;;;;;;8.32;2.13;;;25.40;41.80;;;;;;7681129;23;20016;-70
2022/05/12 09:22:28;;;;;;;7.38;2.67;;;25.50;41.00;;;;;;7693351;23;20047;-70
2022/05/12 09:25:43;;;;;;;9.85;2.50;;;25.50;41.00;;;;;;7680731;23;20035;-70
2022/05/12 09:28:43;;;;;;;8.55;2.70;;;25.60;41.00;;;;;;7704797;23;20023;-71
2022/05/12 09:32:02;;;;;;;4.78;2.03;;;25.70;41.30;;;;;;7708455;23;20016;-70
2022/05/12 09:35:23;;;;;;;8.50;2.17;;;25.80;40.90;;;;;;7678356;23;20084;-70
2022/05/12 09:38:26;;;;;;;9.32;1.77;;;25.80;40.40;;;;;;7681349;23;20032;-70
2022/05/12 09:41:43;;;;;;;8.80;2.13;;;25.90;40.50;;;;;;7707999;23;20651;-70
2022/05/12 09:44:54;;;;;;;5.35;2.20;;;26.00;40.00;;;;;;7705469;23;20024;-71
2022/05/12 09:48:14;;;;;;;6.75;2.15;;;26.10;39.80;;;;;;7706075;23;20058;-70
2022/05/12 09:51:32;;;;;;;11.35;2.35;;;26.20;39.90;;;;;;7682391;23;20020;-69
2022/05/12 09:54:33;;;;;;;4.57;2.13;;;26.40;40.30;;;;;;7708361;23;20020;-70
2022/05/12 09:57:35;;;;;;;6.50;2.13;;;26.50;39.60;;;;;;7681551;23;20024;-70
2022/05/12 10:00:50;;;;;;;9.68;2.90;;;26.60;39.40;;;;;;7679261;23;20021;-70
2022/05/12 10:10:50;;;;;;;11.00;2.28;;;26.90;38.30;;;;;;7705094;23;20012;-71
2022/05/12 10:13:56;;;;;;;7.90;2.20;;;27.00;38.50;;;;;;7706401;23;20047;-70
2022/05/12 10:17:01;;;;;;;10.60;2.78;;;27.00;38.60;;;;;;7651253;23;20016;-70
2022/05/12 10:20:08;;;;;;;14.15;1.95;;;27.10;38.40;;;;;;7708347;23;20008;-70
2022/05/12 10:23:41;;;;;;;6.55;2.20;;;27.20;38.40;;;;;;7683081;23;20036;-70
2022/05/12 10:27:13;;;;;;;7.15;2.03;;;27.20;38.30;;;;;;7705430;23;20032;-71
2022/05/12 10:30:31;;;;;;;9.15;2.15;;;27.30;37.50;;;;;;7678503;23;20158;-71
2022/05/12 10:33:52;;;;;;;12.55;2.35;;;27.40;37.30;;;;;;7704991;23;20020;-70
2022/05/12 10:37:14;;;;;;;8.32;2.05;;;27.40;37.10;;;;;;7676775;23;20019;-71
2022/05/12 10:40:46;;;;;;;4.00;1.88;;;27.50;37.00;;;;;;7704459;23;20450;-70
2022/05/12 10:44:14;;;;;;;2.65;1.50;;;27.60;36.90;;;;;;7680019;23;20074;-71
2022/05/12 10:47:24;;;;;;;2.87;1.70;;;27.80;36.80;;;;;;7706508;23;20016;-71
2022/05/12 10:50:35;;;;;;;5.05;2.45;;;27.90;36.80;;;;;;7707354;23;20228;-71
2022/05/12 10:53:46;;;;;;;12.85;3.97;;;28.10;36.50;;;;;;7656245;23;20300;-71
2022/05/12 10:57:05;;;;;;;5.88;3.10;;;28.80;35.70;;;;;;7669089;23;20036;-71
2022/05/12 11:00:19;;;;;;;11.38;4.63;;;29.90;34.10;;;;;;7671913;23;20017;-70
2022/05/12 11:03:28;;;;;;;18.00;4.70;;;30.80;32.40;;;;;;7633247;23;20100;-70
2022/05/12 11:07:04;;;;;;;10.07;2.55;;;31.40;31.00;;;;;;7666060;23;20435;-72
2022/05/12 11:10:27;;;;;;;6.00;2.08;;;32.00;30.30;;;;;;7593284;23;20384;-71
2022/05/12 11:13:41;;;;;;;10.93;2.65;;;32.40;28.90;;;;;;7568535;23;20022;-71
2022/05/12 11:17:17;;;;;;;5.38;1.50;;;32.60;28.90;;;;;;7571070;23;20090;-71
2022/05/12 11:20:25;;;;;;;11.13;2.30;;;32.80;28.70;;;;;;7466042;23;20027;-72
2022/05/12 11:23:44;;;;;;;9.00;2.30;;;33.20;28.60;;;;;;7514891;23;20415;-71
2022/05/12 11:27:18;;;;;;;6.60;2.38;;;33.30;28.10;;;;;;7513424;23;20475;-71
2022/05/12 11:30:35;;;;;;;6.68;1.88;;;33.50;28.00;;;;;;7487260;23;20532;-71
2022/05/12 11:33:39;;;;;;;7.40;2.13;;;33.80;28.00;;;;;;7485558;23;20015;-72
2022/05/12 11:36:46;;;;;;;8.15;1.98;;;34.10;27.70;;;;;;7510969;23;20051;-73
2022/05/12 11:39:50;;;;;;;10.10;2.10;;;34.20;27.20;;;;;;7486584;23;20015;-72
2022/05/12 11:46:39;;;;;;;9.50;1.90;;;34.40;27.20;;;;;;7501699;23;20015;-73
2022/05/12 11:50:26;;;;;;;6.88;1.65;;;34.40;27.30;;;;;;7523041;23;20011;-71
2022/05/12 11:53:53;;;;;;;10.45;2.65;;;34.50;27.20;;;;;;7362893;24;20016;-71
2022/05/12 11:56:58;;;;;;;3.17;1.85;;;34.70;27.10;;;;;;7431461;23;20012;-72
2022/05/12 12:00:04;;;;;;;11.60;2.45;;;34.90;27.20;;;;;;7486613;23;20119;-72
2022/05/12 12:03:35;;;;;;;9.32;2.10;;;35.10;27.00;;;;;;7484387;23;20052;-72
2022/05/12 12:06:48;;;;;;;4.82;1.60;;;35.30;26.60;;;;;;7450233;23;20669;-73
2022/05/12 12:09:52;;;;;;;5.15;1.60;;;35.20;25.90;;;;;;7475039;23;20022;-73
2022/05/12 12:12:53;;;;;;;5.90;1.65;;;35.30;26.10;;;;;;7473663;23;20388;-73
2022/05/12 12:16:02;;;;;;;11.32;1.92;;;35.40;25.90;;;;;;7453254;23;20030;-73
2022/05/12 12:19:06;;;;;;;10.90;1.95;;;35.40;26.00;;;;;;7452014;23;20026;-72
2022/05/12 12:22:35;;;;;;;10.25;1.83;;;35.40;25.60;;;;;;7430441;23;20015;-72
2022/05/12 12:25:41;;;;;;;8.93;1.77;;;35.50;25.30;;;;;;7451534;23;20028;-73
2022/05/12 12:29:12;;;;;;;7.82;1.63;;;35.70;25.30;;;;;;7493805;23;20017;-72
2022/05/12 12:32:33;;;;;;;6.30;1.58;;;35.90;24.60;;;;;;7642916;23;20021;-73
2022/05/12 12:36:01;;;;;;;13.27;2.30;;;36.00;24.60;;;;;;7658922;23;20013;-72
2022/05/12 12:39:13;;;;;;;10.43;2.08;;;36.20;24.30;;;;;;7659728;23;20017;-71
2022/05/12 12:42:30;;;;;;;4.72;2.13;;;36.30;24.20;;;;;;7686135;23;20020;-71
2022/05/12 12:45:31;;;;;;;10.05;1.90;;;36.50;24.00;;;;;;7660297;23;20030;-72
2022/05/12 12:48:37;;;;;;;5.22;1.77;;;36.60;24.00;;;;;;7685794;23;20016;-72
2022/05/12 12:51:39;;;;;;;6.25;1.98;;;36.90;24.10;;;;;;7687649;23;20030;-71
2022/05/12 12:58:00;;;;;;;9.70;2.08;;;37.50;23.60;;;;;;7711323;23;20071;-72
2022/05/12 13:01:09;;;;;;;14.68;2.17;;;38.00;23.20;;;;;;7711412;23;20462;-71
2022/05/12 13:04:12;;;;;;;5.60;1.80;;;38.20;22.80;;;;;;7711273;23;20026;-71
2022/05/12 13:07:24;;;;;;;7.57;1.80;;;38.50;22.50;;;;;;7685823;23;20035;-73
2022/05/12 13:10:30;;;;;;;5.68;1.75;;;38.80;22.10;;;;;;7709718;23;20027;-72
2022/05/12 13:13:31;;;;;;;7.38;2.30;;;39.10;21.90;;;;;;7711578;23;20026;-73
2022/05/12 13:16:36;;;;;;;4.90;1.60;;;39.40;21.50;;;;;;7711563;23;20077;-72
2022/05/12 13:19:39;;;;;;;9.82;2.53;;;39.60;21.50;;;;;;7712344;23;20289;-72
2022/05/12 13:22:51;;;;;;;7.45;1.85;;;39.90;21.30;;;;;;7683785;23;20024;-72
2022/05/12 13:25:53;;;;;;;11.20;2.10;;;40.20;21.00;;;;;;7710978;23;20040;-74
2022/05/12 13:28:55;;;;;;;6.05;1.75;;;40.50;20.70;;;;;;7661160;23;20087;-73
2022/05/12 13:32:01;;;;;;;17.85;2.20;;;41.00;20.50;;;;;;7684776;23;20024;-72
2022/05/12 13:35:19;;;;;;;5.10;1.92;;;41.30;19.90;;;;;;7659993;23;20388;-71
2022/05/12 13:38:21;;;;;;;5.00;1.98;;;41.70;19.80;;;;;;7684053;23;20446;-71
2022/05/12 13:41:31;;;;;;;6.75;1.80;;;42.30;19.40;;;;;;7685325;23;20031;-72
2022/05/12 13:44:37;;;;;;;9.02;2.15;;;42.80;19.00;;;;;;7685805;23;20067;-72
2022/05/12 13:47:49;;;;;;;11.25;2.10;;;43.20;18.70;;;;;;7684939;23;20066;-72
2022/05/12 13:50:52;;;;;;;10.55;1.80;;;43.40;18.20;;;;;;7711840;23;20020;-71
2022/05/12 13:54:08;;;;;;;5.05;1.75;;;43.20;18.10;;;;;;7711608;23;20273;-71
2022/05/12 13:57:19;;;;;;;11.60;2.17;;;43.10;18.10;;;;;;7685523;23;20021;-71
2022/05/12 14:00:35;;;;;;;16.08;2.15;;;42.90;18.10;;;;;;7683996;23;20021;-71
2022/05/12 14:03:36;;;;;;;12.15;2.15;;;42.90;18.20;;;;;;7684733;23;20029;-74
2022/05/12 14:06:54;;;;;;;5.47;2.03;;;43.10;17.80;;;;;;7660273;23;20013;-73
2022/05/12 14:09:58;;;;;;;12.30;2.05;;;43.10;17.70;;;;;;7660185;23;20360;-73
2022/05/12 14:19:49;;;;;;;8.27;1.70;;;42.00;18.10;;;;;;7709585;23;20076;-72
2022/05/12 14:22:50;;;;;;;9.43;2.67;;;41.90;18.20;;;;;;7652797;23;20247;-72
2022/05/12 14:25:51;;;;;;;8.50;2.30;;;41.70;18.20;;;;;;7673524;23;20031;-72
2022/05/12 14:28:53;;;;;;;10.00;1.90;;;41.70;18.20;;;;;;7678023;23;20075;-72
2022/05/12 14:31:55;;;;;;;11.90;2.15;;;41.70;18.10;;;;;;7682433;23;20427;-72
2022/05/12 14:34:57;;;;;;;7.43;1.92;;;41.40;18.20;;;;;;7683446;23;20414;-73
2022/05/12 14:37:58;;;;;;;13.90;2.30;;;40.50;18.60;;;;;;7709744;23;20078;-72
2022/05/12 14:40:59;;;;;;;16.05;2.35;;;39.90;19.20;;;;;;7710056;23;20311;-73
2022/05/12 14:44:00;;;;;;;13.50;1.95;;;39.80;19.30;;;;;;7709613;23;20023;-72
2022/05/12 14:47:06;;;;;;;6.13;1.83;;;39.80;19.10;;;;;;7658459;23;20017;-72
2022/05/12 14:50:09;;;;;;;9.07;2.20;;;39.20;19.60;;;;;;7707641;23;20027;-72
2022/05/12 14:53:10;;;;;;;9.82;2.28;;;38.30;20.30;;;;;;7658947;23;20031;-72
2022/05/12 14:56:11;;;;;;;11.18;2.20;;;37.50;21.00;;;;;;7682705;23;20432;-72
2022/05/12 14:59:13;;;;;;;11.27;2.47;;;36.70;21.60;;;;;;7683324;23;20013;-72
2022/05/12 15:02:33;;;;;;;12.20;2.40;;;35.90;22.20;;;;;;7683242;23;20531;-72
2022/05/12 15:05:36;;;;;;;7.65;1.67;;;35.30;22.80;;;;;;7707543;23;20051;-72
2022/05/12 15:08:37;;;;;;;10.60;2.00;;;34.80;23.20;;;;;;7709254;23;20089;-72
2022/05/12 15:11:39;;;;;;;9.90;2.00;;;34.40;23.60;;;;;;7707685;23;20020;-72
2022/05/12 15:14:43;;;;;;;7.93;2.42;;;34.10;24.00;;;;;;7680141;23;20065;-72
2022/05/12 15:17:45;;;;;;;6.35;2.70;;;33.90;24.20;;;;;;7708995;23;20019;-72
2022/05/12 15:20:46;;;;;;;10.98;2.28;;;34.00;24.40;;;;;;7681565;23;20021;-71
2022/05/12 15:23:48;;;;;;;7.65;2.55;;;34.40;24.00;;;;;;7708321;23;20016;-72
2022/05/12 15:26:49;;;;;;;3.92;2.10;;;34.80;23.70;;;;;;7707120;23;20074;-72
2022/05/12 15:29:50;;;;;;;10.93;2.75;;;35.10;23.40;;;;;;7680597;23;20014;-72
2022/05/12 15:32:54;;;;;;;11.82;1.90;;;35.30;23.20;;;;;;7680316;23;20106;-72
2022/05/12 15:35:57;;;;;;;10.93;2.40;;;35.10;23.30;;;;;;7667280;23;20063;-72
2022/05/12 15:38:58;;;;;;;8.23;2.15;;;34.60;23.60;;;;;;7707549;23;20035;-72
2022/05/12 15:41:59;;;;;;;9.00;1.98;;;34.00;24.10;;;;;;7681866;23;20303;-72
2022/05/12 15:45:00;;;;;;;6.43;2.10;;;33.60;24.70;;;;;;7708697;23;20016;-72
2022/05/12 15:48:01;;;;;;;9.90;2.17;;;33.20;25.00;;;;;;7708493;23;20430;-72
2022/05/12 15:51:03;;;;;;;6.00;2.47;;;33.00;25.30;;;;;;7657917;23;20074;-72
2022/05/12 15:54:04;;;;;;;5.63;1.95;;;33.00;25.40;;;;;;7656150;23;20374;-72
2022/05/12 15:57:06;;;;;;;11.07;2.50;;;33.20;25.40;;;;;;7707086;23;20066;-72
2022/05/12 16:00:09;;;;;;;5.82;2.17;;;33.30;25.20;;;;;;7707708;23;20408;-72
2022/05/12 16:03:11;;;;;;;9.90;2.50;;;33.50;25.10;;;;;;7628196;23;20096;-72
2022/05/12 16:06:12;;;;;;;11.70;2.42;;;33.50;25.10;;;;;;7683065;23;20055;-71
2022/05/12 16:09:14;;;;;;;6.10;2.40;;;33.50;25.10;;;;;;7707606;23;20048;-72
2022/05/12 16:12:34;;;;;;;6.35;2.47;;;33.30;25.20;;;;;;7643862;23;20091;-73
2022/05/12 16:15:36;;;;;;;6.80;2.60;;;33.00;25.50;;;;;;7643268;23;20448;-72
2022/05/12 16:18:37;;;;;;;9.70;2.42;;;32.70;25.90;;;;;;7644889;23;20080;-72
2022/05/12 16:21:39;;;;;;;12.45;2.47;;;32.40;26.20;;;;;;7645543;23;20025;-73
2022/05/12 16:24:40;;;;;;;6.32;2.08;;;32.10;26.50;;;;;;7672169;23;20482;-72
2022/05/12 16:27:44;;;;;;;10.40;2.25;;;32.00;26.70;;;;;;7643232;23;20096;-72
2022/05/12 16:30:45;;;;;;;9.00;2.10;;;31.90;26.70;;;;;;7606862;23;20021;-71
2022/05/12 16:33:47;;;;;;;6.05;2.38;;;31.80;26.90;;;;;;7645934;23;20067;-71